マイアミ の空港の天気 - METARとTAF

マイアミ国際空港 ( KMIA / MIA ) - アメリカ フロリダ州マイアミ
飛行場実況気象(Metar)
観測時間08/16 01:53 EDT (08/16 05:53 UTC)
風向・風速静穏 0m/s
視程10km以上
天気現象
少しの雲 雲底高度 760m
少しの雲 雲底高度 2130m
全天の8割程度の雲 雲底高度 3050m
気温27.2℃
湿度79%
気圧1019.6hPa
METARKMIA 160553Z 00000KT 10SM FEW025 FEW070 BKN100 27/23 A3011 RMK AO2 SLP196 T02720233 10294 20261 56002 $
過去の天気等 Google飛行場航空写真 Wunderground天気予報

過去48時間のMETAR

飛行場予報(TAF)
発表時間: 8/16 01:35 EDT (8/16 05:35 UTC)
予報対象時間: 16日2時 EDT ~ 17日8時 EDT
風向・風速東 4m/s
視程10km以上
少しの雲 雲底高度 760m
全天の4割程度の雲 雲底高度 7620m
16日11時 EDT から
風向・風速東南東 6m/s
視程10km以上
全天の4割程度の雲 雲底高度 1070m
全天の8割程度の雲 雲底高度 1520m
16日20時 EDT から
風向・風速東 5m/s
視程10km以上
少しの雲 雲底高度 760m
全天の4割程度の雲 雲底高度 7620m
KMIA 160535Z 1606/1712 10007KT P6SM FEW025 SCT250
FM161500 12011KT P6SM SCT035 BKN050
FM170000 10009KT P6SM FEW025 SCT250